Terminal Aerodrome Forecast
Issued by NWS Pueblo, CO

Home | Current Version | Previous Version | Text Only | Print | Product List | Glossary On
Versions: 1 2 3 4 5 6 7 8 9 10 11 12 13 14 15 16 17 18 19 20 21 22 23 24 25 26 27 28 29 30 31 32 33 34
000
FTUS45 KPUB 271748
TAFCOS
TAF
KCOS 271748Z 2718/2818 18014KT P6SM FEW020 SCT200
     FM271900 17012G22KT P6SM SCT080 BKN140
     FM280100 13008KT P6SM VCSH SCT040 BKN080
     FM280600 14010KT P6SM SCT020 BKN080
     FM281200 03007KT P6SM FEW080 SCT250
     FM281700 12008KT P6SM SCT060=

USA.gov is the U.S. government's official web portal to all federal, state and local government web resources and services.